sensor_id;sensor_type;location;lat;lon;timestamp;P1;durP1;ratioP1;P2;durP2;ratioP2
19084;SDS011;9675;51.538;6.728;2022-08-01T00:02:26;2.90;;;2.00;;
19084;SDS011;9675;51.538;6.728;2022-08-01T00:04:53;4.57;;;2.37;;
19084;SDS011;9675;51.538;6.728;2022-08-01T00:07:20;6.07;;;2.47;;
19084;SDS011;9675;51.538;6.728;2022-08-01T00:09:49;4.30;;;2.60;;
19084;SDS011;9675;51.538;6.728;2022-08-01T00:12:16;2.67;;;2.10;;
19084;SDS011;9675;51.538;6.728;2022-08-01T00:14:43;4.67;;;2.83;;
19084;SDS011;9675;51.538;6.728;2022-08-01T00:17:10;3.80;;;1.90;;
19084;SDS011;9675;51.538;6.728;2022-08-01T00:19:37;3.30;;;1.93;;
19084;SDS011;9675;51.538;6.728;2022-08-01T00:22:04;2.90;;;1.70;;
19084;SDS011;9675;51.538;6.728;2022-08-01T00:24:31;2.57;;;1.70;;
19084;SDS011;9675;51.538;6.728;2022-08-01T00:27:00;7.40;;;1.93;;
19084;SDS011;9675;51.538;6.728;2022-08-01T00:29:27;4.63;;;2.20;;
19084;SDS011;9675;51.538;6.728;2022-08-01T00:31:54;2.60;;;1.73;;
19084;SDS011;9675;51.538;6.728;2022-08-01T00:34:21;2.57;;;1.40;;
19084;SDS011;9675;51.538;6.728;2022-08-01T00:36:49;3.30;;;1.57;;
19084;SDS011;9675;51.538;6.728;2022-08-01T00:39:16;3.83;;;2.30;;
19084;SDS011;9675;51.538;6.728;2022-08-01T00:41:43;3.13;;;2.23;;
19084;SDS011;9675;51.538;6.728;2022-08-01T00:44:12;5.10;;;2.20;;
19084;SDS011;9675;51.538;6.728;2022-08-01T00:46:39;6.00;;;2.73;;
19084;SDS011;9675;51.538;6.728;2022-08-01T00:49:06;4.47;;;2.13;;
19084;SDS011;9675;51.538;6.728;2022-08-01T00:51:33;6.27;;;2.10;;
19084;SDS011;9675;51.538;6.728;2022-08-01T00:54:01;4.30;;;2.13;;
19084;SDS011;9675;51.538;6.728;2022-08-01T00:56:28;9.87;;;2.03;;
19084;SDS011;9675;51.538;6.728;2022-08-01T00:58:56;3.03;;;1.97;;
19084;SDS011;9675;51.538;6.728;2022-08-01T01:01:24;5.30;;;2.20;;
19084;SDS011;9675;51.538;6.728;2022-08-01T01:03:52;2.17;;;1.80;;
19084;SDS011;9675;51.538;6.728;2022-08-01T01:06:23;2.37;;;1.80;;
19084;SDS011;9675;51.538;6.728;2022-08-01T01:09:12;6.17;;;2.37;;
19084;SDS011;9675;51.538;6.728;2022-08-01T01:11:57;3.57;;;2.20;;
19084;SDS011;9675;51.538;6.728;2022-08-01T01:14:36;5.10;;;2.73;;
19084;SDS011;9675;51.538;6.728;2022-08-01T01:17:13;5.53;;;2.30;;
19084;SDS011;9675;51.538;6.728;2022-08-01T01:19:47;3.63;;;2.50;;
19084;SDS011;9675;51.538;6.728;2022-08-01T01:22:25;2.87;;;2.00;;
19084;SDS011;9675;51.538;6.728;2022-08-01T01:25:10;7.40;;;2.90;;
19084;SDS011;9675;51.538;6.728;2022-08-01T01:28:02;3.40;;;2.23;;
19084;SDS011;9675;51.538;6.728;2022-08-01T01:30:36;4.17;;;2.57;;
19084;SDS011;9675;51.538;6.728;2022-08-01T01:33:10;5.07;;;2.77;;
19084;SDS011;9675;51.538;6.728;2022-08-01T01:35:41;5.17;;;2.00;;
19084;SDS011;9675;51.538;6.728;2022-08-01T01:38:15;8.60;;;3.13;;
19084;SDS011;9675;51.538;6.728;2022-08-01T01:40:48;5.83;;;3.07;;
19084;SDS011;9675;51.538;6.728;2022-08-01T01:43:18;3.67;;;2.30;;
19084;SDS011;9675;51.538;6.728;2022-08-01T01:45:49;4.57;;;2.43;;
19084;SDS011;9675;51.538;6.728;2022-08-01T01:48:18;3.60;;;2.37;;
19084;SDS011;9675;51.538;6.728;2022-08-01T01:50:49;7.07;;;2.33;;
19084;SDS011;9675;51.538;6.728;2022-08-01T01:53:19;3.73;;;2.27;;
19084;SDS011;9675;51.538;6.728;2022-08-01T01:55:49;3.40;;;2.13;;
19084;SDS011;9675;51.538;6.728;2022-08-01T01:58:21;4.57;;;2.33;;
19084;SDS011;9675;51.538;6.728;2022-08-01T02:00:53;2.50;;;1.83;;
19084;SDS011;9675;51.538;6.728;2022-08-01T02:03:24;4.60;;;2.60;;
19084;SDS011;9675;51.538;6.728;2022-08-01T02:05:56;4.60;;;2.10;;
19084;SDS011;9675;51.538;6.728;2022-08-01T02:08:25;3.63;;;2.50;;
19084;SDS011;9675;51.538;6.728;2022-08-01T02:10:56;3.60;;;2.60;;
19084;SDS011;9675;51.538;6.728;2022-08-01T02:13:42;4.67;;;2.07;;
19084;SDS011;9675;51.538;6.728;2022-08-01T02:16:13;10.47;;;3.57;;
19084;SDS011;9675;51.538;6.728;2022-08-01T02:18:43;4.87;;;2.67;;
19084;SDS011;9675;51.538;6.728;2022-08-01T02:21:11;4.07;;;2.17;;
19084;SDS011;9675;51.538;6.728;2022-08-01T02:23:46;3.40;;;2.03;;
19084;SDS011;9675;51.538;6.728;2022-08-01T02:26:16;5.60;;;3.10;;
19084;SDS011;9675;51.538;6.728;2022-08-01T02:28:46;4.87;;;2.90;;
19084;SDS011;9675;51.538;6.728;2022-08-01T02:31:22;4.80;;;2.47;;
19084;SDS011;9675;51.538;6.728;2022-08-01T02:33:52;4.60;;;3.10;;
19084;SDS011;9675;51.538;6.728;2022-08-01T02:36:27;2.53;;;1.47;;
19084;SDS011;9675;51.538;6.728;2022-08-01T02:38:59;3.20;;;2.10;;
19084;SDS011;9675;51.538;6.728;2022-08-01T02:41:30;3.70;;;2.40;;
19084;SDS011;9675;51.538;6.728;2022-08-01T02:44:03;4.83;;;2.20;;
19084;SDS011;9675;51.538;6.728;2022-08-01T02:46:38;2.43;;;1.93;;
19084;SDS011;9675;51.538;6.728;2022-08-01T02:49:11;5.00;;;3.10;;
19084;SDS011;9675;51.538;6.728;2022-08-01T02:51:40;4.63;;;2.90;;
19084;SDS011;9675;51.538;6.728;2022-08-01T02:54:10;4.47;;;2.53;;
19084;SDS011;9675;51.538;6.728;2022-08-01T02:56:38;4.60;;;2.60;;
19084;SDS011;9675;51.538;6.728;2022-08-01T02:59:08;4.23;;;2.90;;
19084;SDS011;9675;51.538;6.728;2022-08-01T03:01:42;6.60;;;2.27;;
19084;SDS011;9675;51.538;6.728;2022-08-01T03:04:12;3.57;;;2.10;;
19084;SDS011;9675;51.538;6.728;2022-08-01T03:06:42;4.63;;;2.93;;
19084;SDS011;9675;51.538;6.728;2022-08-01T03:09:11;8.07;;;2.83;;
19084;SDS011;9675;51.538;6.728;2022-08-01T03:11:41;3.03;;;2.13;;
19084;SDS011;9675;51.538;6.728;2022-08-01T03:14:10;6.87;;;2.20;;
19084;SDS011;9675;51.538;6.728;2022-08-01T03:16:41;5.43;;;2.30;;
19084;SDS011;9675;51.538;6.728;2022-08-01T03:19:11;4.93;;;2.73;;
19084;SDS011;9675;51.538;6.728;2022-08-01T03:21:40;3.03;;;1.93;;
19084;SDS011;9675;51.538;6.728;2022-08-01T03:24:11;5.87;;;3.07;;
19084;SDS011;9675;51.538;6.728;2022-08-01T03:26:41;3.30;;;2.27;;
19084;SDS011;9675;51.538;6.728;2022-08-01T03:29:12;7.13;;;2.93;;
19084;SDS011;9675;51.538;6.728;2022-08-01T03:31:48;3.10;;;1.80;;
19084;SDS011;9675;51.538;6.728;2022-08-01T03:34:16;4.83;;;2.63;;
19084;SDS011;9675;51.538;6.728;2022-08-01T03:36:46;4.20;;;2.60;;
19084;SDS011;9675;51.538;6.728;2022-08-01T03:39:19;4.40;;;2.47;;
19084;SDS011;9675;51.538;6.728;2022-08-01T03:41:56;4.43;;;2.17;;
19084;SDS011;9675;51.538;6.728;2022-08-01T03:44:32;4.00;;;2.63;;
19084;SDS011;9675;51.538;6.728;2022-08-01T03:47:05;5.10;;;1.90;;
19084;SDS011;9675;51.538;6.728;2022-08-01T03:49:37;6.17;;;2.17;;
19084;SDS011;9675;51.538;6.728;2022-08-01T03:52:10;2.77;;;1.80;;
19084;SDS011;9675;51.538;6.728;2022-08-01T03:54:41;4.77;;;2.33;;
19084;SDS011;9675;51.538;6.728;2022-08-01T03:57:15;4.77;;;2.43;;
19084;SDS011;9675;51.538;6.728;2022-08-01T03:59:43;4.43;;;2.37;;
19084;SDS011;9675;51.538;6.728;2022-08-01T04:02:13;4.93;;;2.37;;
19084;SDS011;9675;51.538;6.728;2022-08-01T04:04:43;4.00;;;1.70;;
19084;SDS011;9675;51.538;6.728;2022-08-01T04:07:23;3.70;;;2.20;;
19084;SDS011;9675;51.538;6.728;2022-08-01T04:09:54;5.37;;;1.97;;
19084;SDS011;9675;51.538;6.728;2022-08-01T04:12:21;3.17;;;1.43;;
19084;SDS011;9675;51.538;6.728;2022-08-01T04:14:49;4.03;;;2.20;;
19084;SDS011;9675;51.538;6.728;2022-08-01T04:17:18;3.30;;;1.93;;
19084;SDS011;9675;51.538;6.728;2022-08-01T04:19:45;3.80;;;1.67;;
19084;SDS011;9675;51.538;6.728;2022-08-01T04:22:13;3.37;;;1.77;;
19084;SDS011;9675;51.538;6.728;2022-08-01T04:24:41;2.53;;;1.73;;
19084;SDS011;9675;51.538;6.728;2022-08-01T04:27:15;5.87;;;2.33;;
19084;SDS011;9675;51.538;6.728;2022-08-01T04:29:48;4.13;;;2.20;;
19084;SDS011;9675;51.538;6.728;2022-08-01T04:32:22;2.10;;;1.53;;
19084;SDS011;9675;51.538;6.728;2022-08-01T04:34:52;4.67;;;2.03;;
19084;SDS011;9675;51.538;6.728;2022-08-01T04:37:24;2.03;;;1.27;;
19084;SDS011;9675;51.538;6.728;2022-08-01T04:39:54;5.20;;;2.20;;
19084;SDS011;9675;51.538;6.728;2022-08-01T04:42:23;3.37;;;2.07;;
19084;SDS011;9675;51.538;6.728;2022-08-01T04:44:50;3.37;;;1.90;;
19084;SDS011;9675;51.538;6.728;2022-08-01T04:47:18;2.57;;;1.70;;
19084;SDS011;9675;51.538;6.728;2022-08-01T04:49:48;7.10;;;1.87;;
19084;SDS011;9675;51.538;6.728;2022-08-01T04:52:15;8.10;;;3.00;;
19084;SDS011;9675;51.538;6.728;2022-08-01T04:54:43;4.03;;;2.40;;
19084;SDS011;9675;51.538;6.728;2022-08-01T04:57:11;5.67;;;2.43;;
19084;SDS011;9675;51.538;6.728;2022-08-01T04:59:41;3.63;;;1.87;;
19084;SDS011;9675;51.538;6.728;2022-08-01T05:02:11;3.53;;;1.40;;
19084;SDS011;9675;51.538;6.728;2022-08-01T05:04:41;2.37;;;1.23;;
19084;SDS011;9675;51.538;6.728;2022-08-01T05:07:11;5.10;;;1.97;;
19084;SDS011;9675;51.538;6.728;2022-08-01T05:09:41;3.40;;;1.80;;
19084;SDS011;9675;51.538;6.728;2022-08-01T05:12:10;3.17;;;1.53;;
19084;SDS011;9675;51.538;6.728;2022-08-01T05:14:38;3.60;;;1.50;;
19084;SDS011;9675;51.538;6.728;2022-08-01T05:17:06;4.97;;;1.97;;
19084;SDS011;9675;51.538;6.728;2022-08-01T05:19:36;2.17;;;1.07;;
19084;SDS011;9675;51.538;6.728;2022-08-01T05:22:06;4.27;;;1.80;;
19084;SDS011;9675;51.538;6.728;2022-08-01T05:24:37;4.17;;;1.30;;
19084;SDS011;9675;51.538;6.728;2022-08-01T05:27:06;3.80;;;2.00;;
19084;SDS011;9675;51.538;6.728;2022-08-01T05:29:33;3.03;;;1.60;;
19084;SDS011;9675;51.538;6.728;2022-08-01T05:32:01;2.77;;;1.70;;
19084;SDS011;9675;51.538;6.728;2022-08-01T05:34:29;3.97;;;1.70;;
19084;SDS011;9675;51.538;6.728;2022-08-01T05:36:56;3.00;;;1.63;;
19084;SDS011;9675;51.538;6.728;2022-08-01T05:39:23;2.50;;;1.37;;
19084;SDS011;9675;51.538;6.728;2022-08-01T05:41:51;4.57;;;2.00;;
19084;SDS011;9675;51.538;6.728;2022-08-01T05:44:18;7.77;;;2.33;;
19084;SDS011;9675;51.538;6.728;2022-08-01T05:46:45;2.97;;;1.50;;
19084;SDS011;9675;51.538;6.728;2022-08-01T05:49:13;4.30;;;1.63;;
19084;SDS011;9675;51.538;6.728;2022-08-01T05:51:40;3.57;;;1.87;;
19084;SDS011;9675;51.538;6.728;2022-08-01T05:54:07;7.07;;;2.23;;
19084;SDS011;9675;51.538;6.728;2022-08-01T05:56:35;3.97;;;1.97;;
19084;SDS011;9675;51.538;6.728;2022-08-01T05:59:03;3.47;;;1.80;;
19084;SDS011;9675;51.538;6.728;2022-08-01T06:01:30;2.97;;;1.57;;
19084;SDS011;9675;51.538;6.728;2022-08-01T06:03:58;2.87;;;1.70;;
19084;SDS011;9675;51.538;6.728;2022-08-01T06:06:25;2.83;;;1.43;;
19084;SDS011;9675;51.538;6.728;2022-08-01T06:08:52;4.20;;;1.80;;
19084;SDS011;9675;51.538;6.728;2022-08-01T06:11:19;2.80;;;1.67;;
19084;SDS011;9675;51.538;6.728;2022-08-01T06:13:46;2.33;;;1.37;;
19084;SDS011;9675;51.538;6.728;2022-08-01T06:16:15;3.10;;;1.63;;
19084;SDS011;9675;51.538;6.728;2022-08-01T06:18:42;3.77;;;1.97;;
19084;SDS011;9675;51.538;6.728;2022-08-01T06:21:09;3.93;;;1.77;;
19084;SDS011;9675;51.538;6.728;2022-08-01T06:23:36;2.90;;;1.63;;
19084;SDS011;9675;51.538;6.728;2022-08-01T06:26:03;2.77;;;1.70;;
19084;SDS011;9675;51.538;6.728;2022-08-01T06:28:30;3.47;;;1.00;;
19084;SDS011;9675;51.538;6.728;2022-08-01T06:30:58;6.23;;;1.73;;
19084;SDS011;9675;51.538;6.728;2022-08-01T06:33:26;1.63;;;1.03;;
19084;SDS011;9675;51.538;6.728;2022-08-01T06:35:54;5.97;;;2.07;;
19084;SDS011;9675;51.538;6.728;2022-08-01T06:38:21;4.33;;;1.87;;
19084;SDS011;9675;51.538;6.728;2022-08-01T06:40:49;1.77;;;1.53;;
19084;SDS011;9675;51.538;6.728;2022-08-01T06:43:16;1.20;;;0.80;;
19084;SDS011;9675;51.538;6.728;2022-08-01T06:45:44;3.37;;;1.50;;
19084;SDS011;9675;51.538;6.728;2022-08-01T06:48:11;3.97;;;1.60;;
19084;SDS011;9675;51.538;6.728;2022-08-01T06:50:40;3.87;;;1.30;;
19084;SDS011;9675;51.538;6.728;2022-08-01T06:53:07;3.97;;;1.73;;
19084;SDS011;9675;51.538;6.728;2022-08-01T06:55:34;3.27;;;1.37;;
19084;SDS011;9675;51.538;6.728;2022-08-01T06:58:01;1.87;;;1.13;;
19084;SDS011;9675;51.538;6.728;2022-08-01T07:00:28;2.80;;;0.90;;
19084;SDS011;9675;51.538;6.728;2022-08-01T07:02:56;1.83;;;1.07;;
19084;SDS011;9675;51.538;6.728;2022-08-01T07:05:24;2.13;;;1.20;;
19084;SDS011;9675;51.538;6.728;2022-08-01T07:07:53;1.40;;;0.90;;
19084;SDS011;9675;51.538;6.728;2022-08-01T07:10:20;1.67;;;1.00;;
19084;SDS011;9675;51.538;6.728;2022-08-01T07:12:48;3.23;;;1.67;;
19084;SDS011;9675;51.538;6.728;2022-08-01T07:15:15;2.43;;;1.30;;
19084;SDS011;9675;51.538;6.728;2022-08-01T07:17:43;3.97;;;1.30;;
19084;SDS011;9675;51.538;6.728;2022-08-01T07:20:10;2.30;;;1.10;;
19084;SDS011;9675;51.538;6.728;2022-08-01T07:22:39;1.87;;;1.13;;
19084;SDS011;9675;51.538;6.728;2022-08-01T07:25:08;1.53;;;1.10;;
19084;SDS011;9675;51.538;6.728;2022-08-01T07:27:35;1.27;;;0.87;;
19084;SDS011;9675;51.538;6.728;2022-08-01T07:30:03;1.60;;;0.93;;
19084;SDS011;9675;51.538;6.728;2022-08-01T07:32:32;2.93;;;1.20;;
19084;SDS011;9675;51.538;6.728;2022-08-01T07:34:59;3.13;;;0.90;;
19084;SDS011;9675;51.538;6.728;2022-08-01T07:37:27;1.43;;;1.03;;
19084;SDS011;9675;51.538;6.728;2022-08-01T07:39:54;1.00;;;0.90;;
19084;SDS011;9675;51.538;6.728;2022-08-01T07:42:23;0.60;;;0.50;;
19084;SDS011;9675;51.538;6.728;2022-08-01T07:44:50;2.77;;;0.80;;
19084;SDS011;9675;51.538;6.728;2022-08-01T07:47:22;1.43;;;0.80;;
19084;SDS011;9675;51.538;6.728;2022-08-01T07:49:50;1.73;;;1.00;;
19084;SDS011;9675;51.538;6.728;2022-08-01T07:52:17;0.80;;;0.70;;
19084;SDS011;9675;51.538;6.728;2022-08-01T07:54:45;0.97;;;0.50;;
19084;SDS011;9675;51.538;6.728;2022-08-01T07:57:12;1.03;;;0.60;;
19084;SDS011;9675;51.538;6.728;2022-08-01T07:59:41;1.57;;;0.73;;
19084;SDS011;9675;51.538;6.728;2022-08-01T08:02:08;1.40;;;0.70;;
19084;SDS011;9675;51.538;6.728;2022-08-01T08:04:35;1.00;;;0.60;;
19084;SDS011;9675;51.538;6.728;2022-08-01T08:07:02;3.20;;;1.40;;
19084;SDS011;9675;51.538;6.728;2022-08-01T08:09:29;1.40;;;0.60;;
19084;SDS011;9675;51.538;6.728;2022-08-01T08:11:56;0.70;;;0.43;;
19084;SDS011;9675;51.538;6.728;2022-08-01T08:14:23;2.10;;;0.93;;
19084;SDS011;9675;51.538;6.728;2022-08-01T08:16:52;0.57;;;0.40;;
19084;SDS011;9675;51.538;6.728;2022-08-01T08:19:19;2.67;;;0.73;;
19084;SDS011;9675;51.538;6.728;2022-08-01T08:21:46;1.30;;;0.67;;
19084;SDS011;9675;51.538;6.728;2022-08-01T08:24:13;0.60;;;0.40;;
19084;SDS011;9675;51.538;6.728;2022-08-01T08:26:47;1.93;;;0.67;;
19084;SDS011;9675;51.538;6.728;2022-08-01T08:29:16;0.67;;;0.60;;
19084;SDS011;9675;51.538;6.728;2022-08-01T08:31:43;1.70;;;0.70;;
19084;SDS011;9675;51.538;6.728;2022-08-01T08:34:12;1.37;;;0.70;;
19084;SDS011;9675;51.538;6.728;2022-08-01T08:36:39;0.97;;;0.87;;
19084;SDS011;9675;51.538;6.728;2022-08-01T08:39:06;0.63;;;0.50;;
19084;SDS011;9675;51.538;6.728;2022-08-01T08:41:34;0.50;;;0.50;;
19084;SDS011;9675;51.538;6.728;2022-08-01T08:44:03;0.20;;;0.20;;
19084;SDS011;9675;51.538;6.728;2022-08-01T08:46:32;1.13;;;0.80;;
19084;SDS011;9675;51.538;6.728;2022-08-01T08:49:07;2.57;;;0.67;;
19084;SDS011;9675;51.538;6.728;2022-08-01T08:51:37;1.33;;;0.40;;
19084;SDS011;9675;51.538;6.728;2022-08-01T08:54:07;1.27;;;0.57;;
19084;SDS011;9675;51.538;6.728;2022-08-01T08:56:37;0.43;;;0.30;;
19084;SDS011;9675;51.538;6.728;2022-08-01T08:59:06;0.37;;;0.30;;
19084;SDS011;9675;51.538;6.728;2022-08-01T09:01:34;0.90;;;0.57;;
19084;SDS011;9675;51.538;6.728;2022-08-01T09:04:01;0.30;;;0.23;;
19084;SDS011;9675;51.538;6.728;2022-08-01T09:06:29;0.77;;;0.40;;
19084;SDS011;9675;51.538;6.728;2022-08-01T09:08:58;0.43;;;0.30;;
19084;SDS011;9675;51.538;6.728;2022-08-01T09:11:26;0.87;;;0.23;;
19084;SDS011;9675;51.538;6.728;2022-08-01T09:14:04;0.40;;;0.20;;
19084;SDS011;9675;51.538;6.728;2022-08-01T09:16:34;0.63;;;0.53;;
19084;SDS011;9675;51.538;6.728;2022-08-01T09:19:06;1.00;;;0.40;;
19084;SDS011;9675;51.538;6.728;2022-08-01T09:21:37;0.40;;;0.40;;
19084;SDS011;9675;51.538;6.728;2022-08-01T09:24:14;1.07;;;0.53;;
19084;SDS011;9675;51.538;6.728;2022-08-01T09:26:42;0.60;;;0.50;;
19084;SDS011;9675;51.538;6.728;2022-08-01T09:29:16;0.50;;;0.50;;
19084;SDS011;9675;51.538;6.728;2022-08-01T09:31:46;1.40;;;0.53;;
19084;SDS011;9675;51.538;6.728;2022-08-01T09:34:14;0.47;;;0.40;;
19084;SDS011;9675;51.538;6.728;2022-08-01T09:36:50;8.70;;;0.87;;
19084;SDS011;9675;51.538;6.728;2022-08-01T09:39:22;2.73;;;0.83;;
19084;SDS011;9675;51.538;6.728;2022-08-01T09:41:53;1.37;;;0.40;;
19084;SDS011;9675;51.538;6.728;2022-08-01T09:44:36;1.13;;;0.50;;
19084;SDS011;9675;51.538;6.728;2022-08-01T09:47:06;3.27;;;0.20;;
19084;SDS011;9675;51.538;6.728;2022-08-01T09:49:34;0.20;;;0.20;;
19084;SDS011;9675;51.538;6.728;2022-08-01T09:52:10;1.03;;;0.40;;
19084;SDS011;9675;51.538;6.728;2022-08-01T09:54:41;0.30;;;0.20;;
19084;SDS011;9675;51.538;6.728;2022-08-01T09:57:17;0.50;;;0.50;;
19084;SDS011;9675;51.538;6.728;2022-08-01T09:59:49;0.20;;;0.20;;
19084;SDS011;9675;51.538;6.728;2022-08-01T10:02:28;0.40;;;0.20;;
19084;SDS011;9675;51.538;6.728;2022-08-01T10:04:58;3.83;;;0.20;;
19084;SDS011;9675;51.538;6.728;2022-08-01T10:07:27;0.13;;;0.13;;
19084;SDS011;9675;51.538;6.728;2022-08-01T10:09:55;0.07;;;0.07;;
19084;SDS011;9675;51.538;6.728;2022-08-01T10:12:38;0.10;;;0.10;;
19084;SDS011;9675;51.538;6.728;2022-08-01T10:15:07;0.00;;;0.00;;
19084;SDS011;9675;51.538;6.728;2022-08-01T10:17:36;0.10;;;0.10;;
19084;SDS011;9675;51.538;6.728;2022-08-01T10:20:08;0.20;;;0.17;;
19084;SDS011;9675;51.538;6.728;2022-08-01T10:22:36;0.37;;;0.20;;
19084;SDS011;9675;51.538;6.728;2022-08-01T10:25:06;0.30;;;0.20;;
19084;SDS011;9675;51.538;6.728;2022-08-01T10:27:35;0.17;;;0.13;;
19084;SDS011;9675;51.538;6.728;2022-08-01T10:30:05;0.00;;;0.00;;
19084;SDS011;9675;51.538;6.728;2022-08-01T10:32:35;0.00;;;0.00;;
19084;SDS011;9675;51.538;6.728;2022-08-01T10:35:02;0.03;;;0.03;;
19084;SDS011;9675;51.538;6.728;2022-08-01T10:37:32;0.60;;;0.03;;
19084;SDS011;9675;51.538;6.728;2022-08-01T10:40:01;0.00;;;0.00;;
19084;SDS011;9675;51.538;6.728;2022-08-01T10:42:31;0.20;;;0.20;;
19084;SDS011;9675;51.538;6.728;2022-08-01T10:44:59;0.03;;;0.00;;
19084;SDS011;9675;51.538;6.728;2022-08-01T10:47:29;0.00;;;0.00;;
19084;SDS011;9675;51.538;6.728;2022-08-01T10:50:07;0.00;;;0.00;;
19084;SDS011;9675;51.538;6.728;2022-08-01T10:53:03;0.30;;;0.10;;
19084;SDS011;9675;51.538;6.728;2022-08-01T10:55:50;0.10;;;0.10;;
19084;SDS011;9675;51.538;6.728;2022-08-01T10:58:27;0.20;;;0.20;;
19084;SDS011;9675;51.538;6.728;2022-08-01T11:01:14;2.33;;;0.10;;
19084;SDS011;9675;51.538;6.728;2022-08-01T11:03:57;0.10;;;0.10;;
19084;SDS011;9675;51.538;6.728;2022-08-01T11:06:36;0.10;;;0.10;;
19084;SDS011;9675;51.538;6.728;2022-08-01T11:09:18;0.40;;;0.33;;
19084;SDS011;9675;51.538;6.728;2022-08-01T11:11:57;0.17;;;0.10;;
19084;SDS011;9675;51.538;6.728;2022-08-01T11:14:31;0.20;;;0.20;;
19084;SDS011;9675;51.538;6.728;2022-08-01T11:20:06;0.20;;;0.20;;
19084;SDS011;9675;51.538;6.728;2022-08-01T11:26:08;0.10;;;0.10;;
19084;SDS011;9675;51.538;6.728;2022-08-01T11:28:42;0.00;;;0.00;;
19084;SDS011;9675;51.538;6.728;2022-08-01T11:31:27;0.10;;;0.10;;
19084;SDS011;9675;51.538;6.728;2022-08-01T11:33:56;0.43;;;0.17;;
19084;SDS011;9675;51.538;6.728;2022-08-01T11:36:24;0.10;;;0.10;;
19084;SDS011;9675;51.538;6.728;2022-08-01T11:41:43;0.10;;;0.10;;
19084;SDS011;9675;51.538;6.728;2022-08-01T11:44:14;0.10;;;0.10;;
19084;SDS011;9675;51.538;6.728;2022-08-01T11:47:00;0.10;;;0.10;;
19084;SDS011;9675;51.538;6.728;2022-08-01T11:49:33;0.40;;;0.33;;
19084;SDS011;9675;51.538;6.728;2022-08-01T11:52:23;0.50;;;0.17;;
19084;SDS011;9675;51.538;6.728;2022-08-01T11:54:54;0.77;;;0.30;;
19084;SDS011;9675;51.538;6.728;2022-08-01T11:57:23;0.10;;;0.10;;
19084;SDS011;9675;51.538;6.728;2022-08-01T11:59:56;0.50;;;0.20;;
19084;SDS011;9675;51.538;6.728;2022-08-01T12:02:26;0.40;;;0.27;;
19084;SDS011;9675;51.538;6.728;2022-08-01T12:04:56;0.20;;;0.13;;
19084;SDS011;9675;51.538;6.728;2022-08-01T12:07:26;0.10;;;0.10;;
19084;SDS011;9675;51.538;6.728;2022-08-01T12:09:59;0.30;;;0.20;;
19084;SDS011;9675;51.538;6.728;2022-08-01T12:12:29;0.10;;;0.10;;
19084;SDS011;9675;51.538;6.728;2022-08-01T12:14:58;0.20;;;0.20;;
19084;SDS011;9675;51.538;6.728;2022-08-01T12:17:34;0.83;;;0.40;;
19084;SDS011;9675;51.538;6.728;2022-08-01T12:20:04;0.10;;;0.10;;
19084;SDS011;9675;51.538;6.728;2022-08-01T12:22:34;0.13;;;0.13;;
19084;SDS011;9675;51.538;6.728;2022-08-01T12:25:06;0.10;;;0.10;;
19084;SDS011;9675;51.538;6.728;2022-08-01T12:27:35;0.33;;;0.30;;
19084;SDS011;9675;51.538;6.728;2022-08-01T12:30:05;0.30;;;0.30;;
19084;SDS011;9675;51.538;6.728;2022-08-01T12:32:37;0.53;;;0.30;;
19084;SDS011;9675;51.538;6.728;2022-08-01T12:35:07;0.50;;;0.30;;
19084;SDS011;9675;51.538;6.728;2022-08-01T12:37:36;0.23;;;0.20;;
19084;SDS011;9675;51.538;6.728;2022-08-01T12:40:15;0.10;;;0.10;;
19084;SDS011;9675;51.538;6.728;2022-08-01T12:42:46;1.03;;;0.33;;
19084;SDS011;9675;51.538;6.728;2022-08-01T12:45:16;0.30;;;0.23;;
19084;SDS011;9675;51.538;6.728;2022-08-01T12:47:48;0.30;;;0.30;;
19084;SDS011;9675;51.538;6.728;2022-08-01T12:50:19;1.33;;;0.20;;
19084;SDS011;9675;51.538;6.728;2022-08-01T12:52:49;0.20;;;0.20;;
19084;SDS011;9675;51.538;6.728;2022-08-01T12:55:17;0.53;;;0.23;;
19084;SDS011;9675;51.538;6.728;2022-08-01T12:57:46;0.27;;;0.27;;
19084;SDS011;9675;51.538;6.728;2022-08-01T13:00:18;0.17;;;0.17;;
19084;SDS011;9675;51.538;6.728;2022-08-01T13:02:58;0.20;;;0.20;;
19084;SDS011;9675;51.538;6.728;2022-08-01T13:05:40;1.30;;;0.20;;
19084;SDS011;9675;51.538;6.728;2022-08-01T13:08:12;0.20;;;0.20;;
19084;SDS011;9675;51.538;6.728;2022-08-01T13:10:41;1.57;;;0.53;;
19084;SDS011;9675;51.538;6.728;2022-08-01T13:13:10;0.40;;;0.30;;
19084;SDS011;9675;51.538;6.728;2022-08-01T13:15:39;0.40;;;0.40;;
19084;SDS011;9675;51.538;6.728;2022-08-01T13:18:23;1.90;;;0.57;;
19084;SDS011;9675;51.538;6.728;2022-08-01T13:21:09;0.20;;;0.20;;
19084;SDS011;9675;51.538;6.728;2022-08-01T13:23:38;0.37;;;0.27;;
19084;SDS011;9675;51.538;6.728;2022-08-01T13:26:06;0.70;;;0.50;;
19084;SDS011;9675;51.538;6.728;2022-08-01T13:28:34;0.17;;;0.17;;
19084;SDS011;9675;51.538;6.728;2022-08-01T13:31:05;0.30;;;0.30;;
19084;SDS011;9675;51.538;6.728;2022-08-01T13:33:42;0.50;;;0.30;;
19084;SDS011;9675;51.538;6.728;2022-08-01T13:36:11;0.30;;;0.30;;
19084;SDS011;9675;51.538;6.728;2022-08-01T13:38:40;0.40;;;0.40;;
19084;SDS011;9675;51.538;6.728;2022-08-01T13:41:25;0.37;;;0.30;;
19084;SDS011;9675;51.538;6.728;2022-08-01T13:43:53;1.37;;;0.33;;
19084;SDS011;9675;51.538;6.728;2022-08-01T13:46:20;0.20;;;0.20;;
19084;SDS011;9675;51.538;6.728;2022-08-01T13:48:48;0.30;;;0.30;;
19084;SDS011;9675;51.538;6.728;2022-08-01T13:51:15;0.97;;;0.40;;
19084;SDS011;9675;51.538;6.728;2022-08-01T13:53:42;0.40;;;0.40;;
19084;SDS011;9675;51.538;6.728;2022-08-01T13:56:09;2.90;;;1.03;;
19084;SDS011;9675;51.538;6.728;2022-08-01T13:58:36;0.30;;;0.30;;
19084;SDS011;9675;51.538;6.728;2022-08-01T14:01:04;0.30;;;0.20;;
19084;SDS011;9675;51.538;6.728;2022-08-01T14:03:31;0.40;;;0.30;;
19084;SDS011;9675;51.538;6.728;2022-08-01T14:05:59;0.47;;;0.30;;
19084;SDS011;9675;51.538;6.728;2022-08-01T14:08:27;0.30;;;0.20;;
19084;SDS011;9675;51.538;6.728;2022-08-01T14:10:55;0.37;;;0.30;;
19084;SDS011;9675;51.538;6.728;2022-08-01T14:13:23;0.43;;;0.23;;
19084;SDS011;9675;51.538;6.728;2022-08-01T14:15:51;0.73;;;0.30;;
19084;SDS011;9675;51.538;6.728;2022-08-01T14:18:18;0.57;;;0.50;;
19084;SDS011;9675;51.538;6.728;2022-08-01T14:20:45;1.03;;;0.40;;
19084;SDS011;9675;51.538;6.728;2022-08-01T14:23:14;0.90;;;0.40;;
19084;SDS011;9675;51.538;6.728;2022-08-01T14:25:41;0.10;;;0.10;;
19084;SDS011;9675;51.538;6.728;2022-08-01T14:28:08;1.07;;;0.20;;
19084;SDS011;9675;51.538;6.728;2022-08-01T14:30:36;1.07;;;0.40;;
19084;SDS011;9675;51.538;6.728;2022-08-01T14:33:03;0.33;;;0.30;;
19084;SDS011;9675;51.538;6.728;2022-08-01T14:35:30;0.30;;;0.30;;
19084;SDS011;9675;51.538;6.728;2022-08-01T14:37:58;1.30;;;0.40;;
19084;SDS011;9675;51.538;6.728;2022-08-01T14:40:26;0.30;;;0.30;;
19084;SDS011;9675;51.538;6.728;2022-08-01T14:42:53;0.43;;;0.30;;
19084;SDS011;9675;51.538;6.728;2022-08-01T14:45:21;0.30;;;0.30;;
19084;SDS011;9675;51.538;6.728;2022-08-01T14:47:48;2.47;;;1.17;;
19084;SDS011;9675;51.538;6.728;2022-08-01T14:50:15;0.20;;;0.20;;
19084;SDS011;9675;51.538;6.728;2022-08-01T14:52:42;0.40;;;0.30;;
19084;SDS011;9675;51.538;6.728;2022-08-01T14:55:10;0.60;;;0.30;;
19084;SDS011;9675;51.538;6.728;2022-08-01T14:57:39;0.33;;;0.30;;
19084;SDS011;9675;51.538;6.728;2022-08-01T15:00:07;0.30;;;0.30;;
19084;SDS011;9675;51.538;6.728;2022-08-01T15:02:38;2.57;;;0.77;;
19084;SDS011;9675;51.538;6.728;2022-08-01T15:05:06;0.20;;;0.20;;
19084;SDS011;9675;51.538;6.728;2022-08-01T15:07:34;1.17;;;0.13;;
19084;SDS011;9675;51.538;6.728;2022-08-01T15:10:03;0.40;;;0.20;;
19084;SDS011;9675;51.538;6.728;2022-08-01T15:12:31;0.20;;;0.13;;
19084;SDS011;9675;51.538;6.728;2022-08-01T15:15:01;0.33;;;0.27;;
19084;SDS011;9675;51.538;6.728;2022-08-01T15:17:29;0.73;;;0.47;;
19084;SDS011;9675;51.538;6.728;2022-08-01T15:19:58;0.30;;;0.30;;
19084;SDS011;9675;51.538;6.728;2022-08-01T15:22:27;0.40;;;0.10;;
19084;SDS011;9675;51.538;6.728;2022-08-01T15:24:56;0.20;;;0.10;;
19084;SDS011;9675;51.538;6.728;2022-08-01T15:27:26;0.30;;;0.30;;
19084;SDS011;9675;51.538;6.728;2022-08-01T15:29:54;0.50;;;0.50;;